CA-0311 weather

CLOSED Risks Creek Airport
British Columbia, Canada

Public forecast

Using degrees Celsius for public forecast. Weather courtesy of forecast.io.

METAR (pilot weather report)

Closest report is Williams Lake Airport, 21.5 nm (39.7 km) NE. Retrieved 2019/08/21 10:00 UTC (42 minutes ago):

CYWL 211000Z 12012KT 15SM SCT140 BKN240 18/04 A2981 RMK AC3CI2 SLP083 DENSITY ALT 4300FT

TAF (pilot weather forecast)

Closest forecast is Williams Lake Airport, 21.5 nm (39.7 km) NE. Retrieved 2019/08/21 07:42 UTC (3 hours ago):

TAF TAF CYWL 210639Z 2107/2119 13010G20KT P6SM BKN160 FM211700 13012G22KT P6SM BKN050 TEMPO 2117/2119 P6SM -SHRA RMK NXT FCST BY 211300Z